Terminal Aerodrome Forecast
Issued by NWS Louisville, KY

Home | Current Version | Previous Version | Text Only | Print | Product List | Glossary On
Versions: 1 2 3 4 5 6 7 8 9 10 11 12
719
FTUS43 KLMK 210527
TAFBWG
TAF
KBWG 210527Z 2106/2206 18006KT P6SM SKC
     FM211300 19008KT P6SM FEW140 FEW250
     FM211700 21014G19KT P6SM SCT250
     FM212200 22008KT P6SM FEW110 SCT250
     FM220200 32005KT P6SM SCT100 BKN200=

USA.gov is the U.S. government's official web portal to all federal, state and local government web resources and services.